createdAt,value
2019-04-03T00:00:57.524Z,0.00
2019-04-03T00:01:57.499Z,0.00
2019-04-03T00:02:57.501Z,0.00
2019-04-03T00:03:57.543Z,0.00
2019-04-03T00:04:57.487Z,0.00
2019-04-03T00:05:57.474Z,0.00
2019-04-03T00:06:57.483Z,0.00
2019-04-03T00:07:57.433Z,0.00
2019-04-03T00:08:57.462Z,0.00
2019-04-03T00:09:57.526Z,0.00
2019-04-03T00:10:57.403Z,0.00
2019-04-03T00:11:57.522Z,0.00
2019-04-03T00:12:57.389Z,0.00
2019-04-03T00:13:57.381Z,0.00
2019-04-03T00:14:57.395Z,0.00
2019-04-03T00:15:57.372Z,0.00
2019-04-03T00:16:57.349Z,0.00
2019-04-03T00:17:57.351Z,0.00
2019-04-03T00:18:57.328Z,0.00
2019-04-03T00:19:57.318Z,0.00
2019-04-03T00:20:57.328Z,0.00
2019-04-03T00:21:57.289Z,0.00
2019-04-03T00:22:57.359Z,0.00
2019-04-03T00:23:57.271Z,0.00
2019-04-03T00:24:57.264Z,0.00
2019-04-03T00:25:57.245Z,0.00
2019-04-03T00:26:57.234Z,0.00
2019-04-03T00:27:57.235Z,0.00
2019-04-03T00:28:57.213Z,0.00
2019-04-03T00:29:57.223Z,0.00
2019-04-03T00:30:57.194Z,0.00
2019-04-03T00:31:57.182Z,0.00
2019-04-03T00:32:57.173Z,0.00
2019-04-03T00:33:57.172Z,0.00
2019-04-03T00:34:57.230Z,0.00
2019-04-03T00:35:57.142Z,0.00
2019-04-03T00:36:57.140Z,0.00
2019-04-03T00:37:57.118Z,0.00
2019-04-03T00:38:57.112Z,0.00
2019-04-03T00:39:57.099Z,0.00
2019-04-03T00:40:57.101Z,0.00
2019-04-03T00:41:57.085Z,0.00
2019-04-03T00:42:57.100Z,0.00
2019-04-03T00:43:57.047Z,0.00
2019-04-03T00:44:57.217Z,0.00
2019-04-03T00:45:57.038Z,0.00
2019-04-03T00:46:57.035Z,0.00
2019-04-03T00:47:57.027Z,0.00
2019-04-03T00:48:57.707Z,0.00
2019-04-03T00:49:57.134Z,0.00
2019-04-03T00:50:57.607Z,0.00
2019-04-03T00:51:57.689Z,0.00
2019-04-03T00:52:57.811Z,0.00
2019-04-03T00:53:57.993Z,0.00
2019-04-03T00:54:57.152Z,0.00
2019-04-03T00:55:57.040Z,0.00
2019-04-03T00:56:57.055Z,0.00
2019-04-03T00:57:57.123Z,0.00
2019-04-03T00:58:56.910Z,0.00
2019-04-03T00:59:56.994Z,0.00
2019-04-03T01:00:56.891Z,0.00
2019-04-03T01:01:57.177Z,0.00
2019-04-03T01:02:58.995Z,0.00
2019-04-03T01:03:58.877Z,0.00
2019-04-03T01:04:58.421Z,0.00
2019-04-03T01:05:58.407Z,0.00
2019-04-03T01:06:58.519Z,0.00
2019-04-03T01:07:59.218Z,0.00
2019-04-03T01:08:57.760Z,0.00
2019-04-03T01:09:57.796Z,0.00
2019-04-03T01:10:56.909Z,0.00
2019-04-03T01:11:56.783Z,0.00
2019-04-03T01:12:56.784Z,0.00
2019-04-03T01:13:56.777Z,0.00
2019-04-03T01:14:56.726Z,0.00
2019-04-03T01:15:56.719Z,0.00
2019-04-03T01:16:56.702Z,0.00
2019-04-03T01:17:56.692Z,0.00
2019-04-03T01:18:56.692Z,0.00
2019-04-03T01:19:56.775Z,0.00
2019-04-03T01:20:56.675Z,0.00
2019-04-03T01:21:56.660Z,0.00
2019-04-03T01:22:56.642Z,0.00
2019-04-03T01:23:56.629Z,0.00
2019-04-03T01:24:56.619Z,0.00
2019-04-03T01:25:56.630Z,0.00
2019-04-03T01:26:56.598Z,0.00
2019-04-03T01:27:56.599Z,0.00
2019-04-03T01:28:56.600Z,0.00
2019-04-03T01:29:56.568Z,0.00
2019-04-03T01:30:56.590Z,0.00
2019-04-03T01:31:56.546Z,0.00
2019-04-03T01:32:56.562Z,0.00
2019-04-03T01:33:56.545Z,0.00
2019-04-03T01:34:56.514Z,0.00
2019-04-03T01:35:56.530Z,0.00
2019-04-03T01:36:56.503Z,0.00
2019-04-03T01:37:56.476Z,0.00
2019-04-03T01:38:56.464Z,0.00
2019-04-03T01:39:56.519Z,0.00
2019-04-03T01:40:56.442Z,0.00
2019-04-03T01:41:56.452Z,0.00
2019-04-03T01:42:56.513Z,0.00
2019-04-03T01:43:56.424Z,0.00
2019-04-03T01:44:56.450Z,0.00
2019-04-03T01:45:56.966Z,0.00
2019-04-03T01:46:57.749Z,0.00
2019-04-03T01:47:58.184Z,0.00
2019-04-03T01:48:56.756Z,0.00
2019-04-03T01:49:56.841Z,0.00
2019-04-03T01:50:57.772Z,0.00
2019-04-03T01:51:56.367Z,0.00
2019-04-03T01:52:56.317Z,0.00
2019-04-03T01:53:56.318Z,0.00
2019-04-03T01:54:56.308Z,0.00
2019-04-03T01:55:56.308Z,0.00
2019-04-03T01:56:56.294Z,0.00
2019-04-03T01:57:56.264Z,0.00
2019-04-03T01:58:56.253Z,0.00
2019-04-03T01:59:56.253Z,0.00
2019-04-03T02:00:56.233Z,0.00
2019-04-03T02:01:56.223Z,0.00
2019-04-03T02:02:56.219Z,0.00
2019-04-03T02:03:56.209Z,0.00
2019-04-03T02:04:56.181Z,0.00
2019-04-03T02:05:56.178Z,0.00
2019-04-03T02:06:56.171Z,0.00
2019-04-03T02:07:56.179Z,0.00
2019-04-03T02:08:56.151Z,0.00
2019-04-03T02:09:56.139Z,0.00
2019-04-03T02:10:56.152Z,0.00
2019-04-03T02:11:56.128Z,0.00
2019-04-03T02:12:56.117Z,0.00
2019-04-03T02:13:56.108Z,0.00
2019-04-03T02:14:56.099Z,0.00
2019-04-03T02:15:56.098Z,0.00
2019-04-03T02:16:56.065Z,0.00
2019-04-03T02:17:56.077Z,0.00
2019-04-03T02:18:56.051Z,0.00
2019-04-03T02:19:56.913Z,0.00
2019-04-03T02:20:57.755Z,0.00
2019-04-03T02:21:58.214Z,0.00
2019-04-03T02:22:56.015Z,0.00
2019-04-03T02:23:55.995Z,0.00
2019-04-03T02:24:55.993Z,0.00
2019-04-03T02:25:55.972Z,0.00
2019-04-03T02:26:55.991Z,0.00
2019-04-03T02:27:55.972Z,0.00
2019-04-03T02:28:55.940Z,0.00
2019-04-03T02:29:56.064Z,0.00
2019-04-03T02:30:55.921Z,0.00
2019-04-03T02:31:56.020Z,0.00
2019-04-03T02:32:57.338Z,0.00
2019-04-03T02:33:56.234Z,0.00
2019-04-03T02:34:55.879Z,0.00
2019-04-03T02:35:55.858Z,0.00
2019-04-03T02:36:55.847Z,0.00
2019-04-03T02:37:55.868Z,0.00
2019-04-03T02:38:55.837Z,0.00
2019-04-03T02:39:59.080Z,0.00
2019-04-03T02:40:56.022Z,0.00
2019-04-03T02:41:55.809Z,0.00
2019-04-03T02:42:55.814Z,0.00
2019-04-03T02:43:55.794Z,0.00
2019-04-03T02:44:55.763Z,0.00
2019-04-03T02:45:56.824Z,0.00
2019-04-03T02:46:59.507Z,0.00
2019-04-03T02:47:56.741Z,0.00
2019-04-03T02:48:55.758Z,0.00
2019-04-03T02:49:55.819Z,0.00
2019-04-03T02:50:55.702Z,0.00
2019-04-03T02:51:55.705Z,0.00
2019-04-03T02:52:58.041Z,0.00
2019-04-03T02:53:55.701Z,0.00
2019-04-03T02:54:55.669Z,0.00
2019-04-03T02:55:55.659Z,0.00
2019-04-03T02:56:55.642Z,0.00
2019-04-03T02:57:55.627Z,0.00
2019-04-03T02:58:55.733Z,0.00
2019-04-03T02:59:57.903Z,0.00
2019-04-03T03:00:55.615Z,0.00
2019-04-03T03:01:55.598Z,0.00
2019-04-03T03:02:55.606Z,0.00
2019-04-03T03:03:55.576Z,0.00
2019-04-03T03:04:55.683Z,0.00
2019-04-03T03:05:59.019Z,0.00
2019-04-03T03:06:55.556Z,0.00
2019-04-03T03:07:55.522Z,0.00
2019-04-03T03:08:55.532Z,0.00
2019-04-03T03:09:55.503Z,0.00
2019-04-03T03:10:55.492Z,0.00
2019-04-03T03:11:56.899Z,0.00
2019-04-03T03:12:55.473Z,0.00
2019-04-03T03:13:55.490Z,0.00
2019-04-03T03:14:55.452Z,0.00
2019-04-03T03:15:55.443Z,0.00
2019-04-03T03:16:55.668Z,0.00
2019-04-03T03:17:56.117Z,0.00
2019-04-03T03:18:57.567Z,0.00
2019-04-03T03:19:55.406Z,0.00
2019-04-03T03:20:55.391Z,0.00
2019-04-03T03:21:55.376Z,0.00
2019-04-03T03:22:55.376Z,0.00
2019-04-03T03:23:56.076Z,0.00
2019-04-03T03:24:55.350Z,0.00
2019-04-03T03:25:55.334Z,0.00
2019-04-03T03:26:55.346Z,0.00
2019-04-03T03:27:55.314Z,0.00
2019-04-03T03:28:55.613Z,0.00
2019-04-03T03:29:58.566Z,0.00
2019-04-03T03:31:01.417Z,0.00
2019-04-03T03:32:08.131Z,0.00
2019-04-03T03:33:21.670Z,0.00
2019-04-03T03:34:00.902Z,0.00
2019-04-03T03:35:07.566Z,0.00
2019-04-03T03:35:56.478Z,0.00
2019-04-03T03:37:00.616Z,0.00
2019-04-03T03:37:56.286Z,0.00
2019-04-03T03:38:55.374Z,0.00
2019-04-03T03:39:55.382Z,0.00
2019-04-03T03:40:55.178Z,0.00
2019-04-03T03:41:57.533Z,0.00
2019-04-03T03:42:55.157Z,0.00
2019-04-03T03:43:55.218Z,0.00
2019-04-03T03:44:55.316Z,0.00
2019-04-03T03:45:55.122Z,0.00
2019-04-03T03:46:55.136Z,0.00
2019-04-03T03:47:55.119Z,0.00
2019-04-03T03:48:55.083Z,0.00
2019-04-03T03:49:55.117Z,0.00
2019-04-03T03:50:57.213Z,0.00
2019-04-03T03:51:55.062Z,0.00
2019-04-03T03:52:55.063Z,0.00
2019-04-03T03:53:55.623Z,0.00
2019-04-03T03:54:55.032Z,0.00
2019-04-03T03:55:58.402Z,0.00
2019-04-03T03:56:55.009Z,0.00
2019-04-03T03:57:55.092Z,0.00
2019-04-03T03:58:55.540Z,0.00
2019-04-03T03:59:54.969Z,0.00
2019-04-03T04:00:57.956Z,0.00
2019-04-03T04:01:55.125Z,0.00
2019-04-03T04:02:55.299Z,0.00
2019-04-03T04:03:54.959Z,0.00
2019-04-03T04:04:54.940Z,0.00
2019-04-03T04:05:56.674Z,0.00
2019-04-03T04:06:55.882Z,0.00
2019-04-03T04:07:54.885Z,0.00
2019-04-03T04:08:54.885Z,0.00
2019-04-03T04:09:55.240Z,0.00
2019-04-03T04:10:58.144Z,0.00
2019-04-03T04:11:54.842Z,0.00
2019-04-03T04:12:54.834Z,0.00
2019-04-03T04:13:54.824Z,0.00
2019-04-03T04:14:56.594Z,0.00
2019-04-03T04:15:55.139Z,0.00
2019-04-03T04:16:54.799Z,0.00
2019-04-03T04:17:54.785Z,0.00
2019-04-03T04:18:56.984Z,0.00
2019-04-03T04:19:54.778Z,0.00
2019-04-03T04:20:54.874Z,0.00
2019-04-03T04:21:54.797Z,0.00
2019-04-03T04:22:55.095Z,0.00
2019-04-03T04:23:55.989Z,0.00
2019-04-03T04:24:54.736Z,0.00
2019-04-03T04:25:54.715Z,0.00
2019-04-03T04:26:54.684Z,0.00
2019-04-03T04:27:54.683Z,0.00
2019-04-03T04:28:54.663Z,0.00
2019-04-03T04:29:54.654Z,0.00
2019-04-03T04:30:54.643Z,0.00
2019-04-03T04:31:54.773Z,0.00
2019-04-03T04:32:54.612Z,0.00
2019-04-03T04:33:54.618Z,0.00
2019-04-03T04:34:54.682Z,0.00
2019-04-03T04:35:54.591Z,0.00
2019-04-03T04:36:55.379Z,0.00
2019-04-03T04:37:55.962Z,0.00
2019-04-03T04:38:57.335Z,0.00
2019-04-03T04:39:54.674Z,0.00
2019-04-03T04:40:54.530Z,0.00
2019-04-03T04:41:54.806Z,0.00
2019-04-03T04:42:54.570Z,0.00
2019-04-03T04:43:54.496Z,4.00
2019-04-03T04:44:54.597Z,4.00
2019-04-03T04:45:54.476Z,0.00
2019-04-03T04:46:54.477Z,4.00
2019-04-03T04:47:54.496Z,4.00
2019-04-03T04:48:54.444Z,4.00
2019-04-03T04:49:54.435Z,4.00
2019-04-03T04:50:55.210Z,8.00
2019-04-03T04:51:56.528Z,8.00
2019-04-03T04:52:54.578Z,12.00
2019-04-03T04:53:54.451Z,12.00
2019-04-03T04:54:54.385Z,12.00
2019-04-03T04:55:54.395Z,12.00
2019-04-03T04:56:54.382Z,16.00
2019-04-03T04:57:54.371Z,16.00
2019-04-03T04:58:54.340Z,24.00
2019-04-03T04:59:54.328Z,24.00
2019-04-03T05:00:54.543Z,28.00
2019-04-03T05:01:54.308Z,36.00
2019-04-03T05:02:54.404Z,36.00
2019-04-03T05:03:54.589Z,44.00
2019-04-03T05:04:55.882Z,52.00
2019-04-03T05:05:57.114Z,56.00
2019-04-03T05:06:54.255Z,64.00
2019-04-03T05:07:54.244Z,72.00
2019-04-03T05:08:54.665Z,84.00
2019-04-03T05:09:54.249Z,92.00
2019-04-03T05:10:54.225Z,104.00
2019-04-03T05:11:54.204Z,116.00
2019-04-03T05:12:54.202Z,128.00
2019-04-03T05:13:54.413Z,144.00
2019-04-03T05:14:54.429Z,160.00
2019-04-03T05:15:54.661Z,172.00
2019-04-03T05:16:55.827Z,188.00
2019-04-03T05:17:54.152Z,204.00
2019-04-03T05:18:54.121Z,224.00
2019-04-03T05:19:54.111Z,248.00
2019-04-03T05:20:54.118Z,272.00
2019-04-03T05:21:54.386Z,304.00
2019-04-03T05:22:55.339Z,332.00
2019-04-03T05:23:56.087Z,360.00
2019-04-03T05:24:54.122Z,384.00
2019-04-03T05:25:54.066Z,408.00
2019-04-03T05:26:54.069Z,436.00
2019-04-03T05:27:54.027Z,472.00
2019-04-03T05:28:57.498Z,500.00
2019-04-03T05:29:54.014Z,516.00
2019-04-03T05:30:53.993Z,528.00
2019-04-03T05:31:54.084Z,552.00
2019-04-03T05:32:53.985Z,600.00
2019-04-03T05:33:53.982Z,652.00
2019-04-03T05:34:53.970Z,684.00
2019-04-03T05:35:53.951Z,712.00
2019-04-03T05:36:53.942Z,740.00
2019-04-03T05:37:53.920Z,772.00
2019-04-03T05:38:54.085Z,816.00
2019-04-03T05:39:55.639Z,880.00
2019-04-03T05:40:56.114Z,972.00
2019-04-03T05:41:53.877Z,1076.00
2019-04-03T05:42:53.909Z,1164.00
2019-04-03T05:43:53.859Z,1244.00
2019-04-03T05:44:54.020Z,1284.00
2019-04-03T05:45:54.087Z,1316.00
2019-04-03T05:46:53.827Z,1360.00
2019-04-03T05:47:53.823Z,1404.00
2019-04-03T05:48:53.828Z,1456.00
2019-04-03T05:49:55.792Z,1504.00
2019-04-03T05:50:53.792Z,1544.00
2019-04-03T05:51:53.772Z,1580.00
2019-04-03T05:52:53.779Z,1632.00
2019-04-03T05:53:54.493Z,1676.00
2019-04-03T05:54:53.754Z,1732.00
2019-04-03T05:55:53.944Z,1784.00
2019-04-03T05:56:53.788Z,1804.00
2019-04-03T05:57:53.711Z,1908.00
2019-04-03T05:58:55.946Z,2120.00
2019-04-03T06:00:00.669Z,2352.00
2019-04-03T06:01:04.224Z,2524.00
2019-04-03T06:01:54.694Z,2680.00
2019-04-03T06:02:54.099Z,2844.00
2019-04-03T06:03:53.646Z,3240.00
2019-04-03T06:04:53.654Z,3396.00
2019-04-03T06:05:53.620Z,3256.00
2019-04-03T06:06:53.638Z,3232.00
2019-04-03T06:07:53.758Z,3932.00
2019-04-03T06:08:56.351Z,5256.00
2019-04-03T06:09:55.102Z,5048.00
2019-04-03T06:10:53.565Z,4800.00
2019-04-03T06:11:53.732Z,4076.00
2019-04-03T06:12:53.643Z,4360.00
2019-04-03T06:13:53.544Z,5140.00
2019-04-03T06:14:53.523Z,6576.00
2019-04-03T06:15:53.905Z,8552.00
2019-04-03T06:16:55.474Z,9888.00
2019-04-03T06:17:55.120Z,6556.00
2019-04-03T06:18:53.494Z,5684.00
2019-04-03T06:19:53.480Z,5308.00
2019-04-03T06:20:53.460Z,7112.00
2019-04-03T06:21:53.477Z,7160.00
2019-04-03T06:22:53.459Z,5436.00
2019-04-03T06:23:53.506Z,6036.00
2019-04-03T06:24:55.836Z,4684.00
2019-04-03T06:25:53.418Z,4628.00
2019-04-03T06:26:53.416Z,4836.00
2019-04-03T06:27:53.409Z,4736.00
2019-04-03T06:28:53.375Z,4512.00
2019-04-03T06:29:55.328Z,4672.00
2019-04-03T06:30:55.502Z,5412.00
2019-04-03T06:31:53.355Z,6632.00
2019-04-03T06:32:55.002Z,7728.00
2019-04-03T06:33:53.332Z,7580.00
2019-04-03T06:34:53.343Z,7220.00
2019-04-03T06:35:53.303Z,7024.00
2019-04-03T06:36:53.546Z,8660.00
2019-04-03T06:37:53.622Z,6556.00
2019-04-03T06:38:54.288Z,5396.00
2019-04-03T06:39:53.431Z,5368.00
2019-04-03T06:40:53.253Z,5040.00
2019-04-03T06:41:53.271Z,4936.00
2019-04-03T06:42:53.230Z,5368.00
2019-04-03T06:43:54.293Z,5476.00
2019-04-03T06:44:54.066Z,5608.00
2019-04-03T06:45:53.218Z,5728.00
2019-04-03T06:46:54.821Z,5464.00
2019-04-03T06:47:53.365Z,5356.00
2019-04-03T06:48:55.242Z,5140.00
2019-04-03T06:49:53.147Z,4908.00
2019-04-03T06:50:53.137Z,6176.00
2019-04-03T06:51:53.204Z,5836.00
2019-04-03T06:52:53.724Z,5948.00
2019-04-03T06:53:53.115Z,6716.00
2019-04-03T06:54:53.125Z,7032.00
2019-04-03T06:55:53.201Z,7296.00
2019-04-03T06:56:53.166Z,7736.00
2019-04-03T06:57:53.178Z,6416.00
2019-04-03T06:58:53.054Z,7912.00
2019-04-03T06:59:53.416Z,9264.00
2019-04-03T07:00:54.743Z,21184.00
2019-04-03T07:01:53.605Z,24096.00
2019-04-03T07:02:53.134Z,10188.00
2019-04-03T07:03:53.010Z,11056.00
2019-04-03T07:04:52.991Z,10768.00
2019-04-03T07:05:53.221Z,17568.00
2019-04-03T07:06:55.383Z,15808.00
2019-04-03T07:07:53.574Z,32480.00
2019-04-03T07:08:52.940Z,19968.00
2019-04-03T07:09:52.945Z,17984.00
2019-04-03T07:10:55.869Z,13416.00
2019-04-03T07:11:52.937Z,9676.00
2019-04-03T07:12:52.907Z,9444.00
2019-04-03T07:13:53.905Z,9948.00
2019-04-03T07:14:53.168Z,9432.00
2019-04-03T07:15:53.087Z,9332.00
2019-04-03T07:16:53.582Z,9760.00
2019-04-03T07:17:52.856Z,9784.00
2019-04-03T07:18:52.844Z,9084.00
2019-04-03T07:19:53.110Z,8716.00
2019-04-03T07:20:52.825Z,8276.00
2019-04-03T07:21:55.126Z,8032.00
2019-04-03T07:22:53.055Z,8056.00
2019-04-03T07:23:52.792Z,8040.00
2019-04-03T07:24:52.793Z,8272.00
2019-04-03T07:25:52.771Z,8720.00
2019-04-03T07:26:52.820Z,8612.00
2019-04-03T07:27:52.911Z,7856.00
2019-04-03T07:28:52.750Z,7748.00
2019-04-03T07:29:52.729Z,7488.00
2019-04-03T07:30:53.906Z,7064.00
2019-04-03T07:31:54.795Z,6780.00
2019-04-03T07:32:52.722Z,6644.00
2019-04-03T07:33:52.690Z,6216.00
2019-04-03T07:34:52.667Z,5792.00
2019-04-03T07:35:52.658Z,5712.00
2019-04-03T07:36:52.760Z,5792.00
2019-04-03T07:37:52.744Z,5940.00
2019-04-03T07:38:52.650Z,6772.00
2019-04-03T07:39:52.626Z,8616.00
2019-04-03T07:40:52.850Z,9504.00
2019-04-03T07:41:54.124Z,10520.00
2019-04-03T07:42:55.631Z,11884.00
2019-04-03T07:43:52.645Z,12000.00
2019-04-03T07:44:52.562Z,11600.00
2019-04-03T07:45:52.562Z,12812.00
2019-04-03T07:46:54.743Z,14248.00
2019-04-03T07:47:52.532Z,15436.00
2019-04-03T07:48:52.533Z,16128.00
2019-04-03T07:49:52.513Z,18112.00
2019-04-03T07:50:52.510Z,17632.00
2019-04-03T07:51:52.501Z,16128.00
2019-04-03T07:52:52.482Z,14896.00
2019-04-03T07:53:52.648Z,13080.00
2019-04-03T07:54:56.452Z,12408.00
2019-04-03T07:55:55.016Z,20000.00
2019-04-03T07:56:52.451Z,15968.00
2019-04-03T07:57:52.426Z,17824.00
2019-04-03T07:58:52.448Z,27424.00
2019-04-03T07:59:52.433Z,19104.00
2019-04-03T08:00:52.529Z,26976.00
2019-04-03T08:01:52.481Z,11636.00
2019-04-03T08:02:53.147Z,10804.00
2019-04-03T08:03:53.372Z,9384.00
2019-04-03T08:04:55.689Z,9860.00
2019-04-03T08:05:55.883Z,9632.00
2019-04-03T08:06:52.345Z,8964.00
2019-04-03T08:07:52.322Z,9348.00
2019-04-03T08:09:05.601Z,8740.00
2019-04-03T08:09:53.303Z,8140.00
2019-04-03T08:10:52.316Z,7332.00
2019-04-03T08:11:52.363Z,8032.00
2019-04-03T08:12:52.264Z,7888.00
2019-04-03T08:13:52.287Z,8676.00
2019-04-03T08:14:52.285Z,9904.00
2019-04-03T08:15:52.373Z,12120.00
2019-04-03T08:16:52.222Z,8900.00
2019-04-03T08:17:52.220Z,7156.00
2019-04-03T08:18:52.496Z,6264.00
2019-04-03T08:19:54.287Z,11164.00
2019-04-03T08:20:52.181Z,9040.00
2019-04-03T08:21:52.475Z,10400.00
2019-04-03T08:22:52.158Z,9816.00
2019-04-03T08:23:52.263Z,16416.00
2019-04-03T08:24:53.719Z,12920.00
2019-04-03T08:25:53.998Z,19008.00
2019-04-03T08:26:52.374Z,22816.00
2019-04-03T08:27:54.540Z,14568.00
2019-04-03T08:28:52.090Z,34912.00
2019-04-03T08:29:52.106Z,25792.00
2019-04-03T08:30:52.284Z,15984.00
2019-04-03T08:31:52.085Z,13512.00
2019-04-03T08:32:52.100Z,13916.00
2019-04-03T08:33:52.043Z,11592.00
2019-04-03T08:34:52.119Z,21664.00
2019-04-03T08:35:52.024Z,19712.00
2019-04-03T08:36:52.029Z,24640.00
2019-04-03T08:37:51.992Z,65376.00
2019-04-03T08:38:52.002Z,38624.00
2019-04-03T08:39:52.179Z,41056.00
2019-04-03T08:40:53.427Z,74784.00
2019-04-03T08:41:52.027Z,76192.00
2019-04-03T08:42:52.242Z,26496.00
2019-04-03T08:43:51.933Z,50592.00
2019-04-03T08:44:51.950Z,13964.00
2019-04-03T08:45:51.921Z,12000.00
2019-04-03T08:46:51.985Z,10964.00
2019-04-03T08:47:51.882Z,13156.00
2019-04-03T08:48:52.736Z,44448.00
2019-04-03T08:49:51.868Z,60640.00
2019-04-03T08:50:52.162Z,12376.00
2019-04-03T08:51:51.896Z,14940.00
2019-04-03T08:52:51.859Z,16480.00
2019-04-03T08:53:54.050Z,14344.00
2019-04-03T08:54:51.852Z,13464.00
2019-04-03T08:55:51.846Z,14324.00
2019-04-03T08:56:51.871Z,10964.00
2019-04-03T08:57:52.464Z,11768.00
2019-04-03T08:58:51.795Z,10016.00
2019-04-03T08:59:51.783Z,14128.00
2019-04-03T09:00:51.765Z,12956.00
2019-04-03T09:01:52.182Z,11808.00
2019-04-03T09:02:51.744Z,11108.00
2019-04-03T09:03:51.977Z,11668.00
2019-04-03T09:04:51.824Z,13952.00
2019-04-03T09:05:54.301Z,12308.00
2019-04-03T09:06:53.658Z,11016.00
2019-04-03T09:07:51.841Z,9892.00
2019-04-03T09:08:51.678Z,9384.00
2019-04-03T09:09:51.897Z,8828.00
2019-04-03T09:10:51.640Z,8592.00
2019-04-03T09:11:51.631Z,8900.00
2019-04-03T09:12:51.682Z,8500.00
2019-04-03T09:13:52.752Z,8124.00
2019-04-03T09:14:51.598Z,8460.00
2019-04-03T09:15:51.588Z,9224.00
2019-04-03T09:16:51.579Z,8720.00
2019-04-03T09:17:51.672Z,8352.00
2019-04-03T09:18:51.570Z,8560.00
2019-04-03T09:19:51.559Z,8988.00
2019-04-03T09:20:51.537Z,10548.00
2019-04-03T09:21:51.793Z,9592.00
2019-04-03T09:22:53.940Z,9724.00
2019-04-03T09:23:51.549Z,10260.00
2019-04-03T09:24:51.487Z,10256.00
2019-04-03T09:25:51.550Z,9684.00
2019-04-03T09:26:51.475Z,10220.00
2019-04-03T09:27:51.455Z,9228.00
2019-04-03T09:28:51.527Z,9068.00
2019-04-03T09:29:51.708Z,8556.00
2019-04-03T09:30:54.015Z,8092.00
2019-04-03T09:31:52.459Z,8252.00
2019-04-03T09:32:53.190Z,9360.00
2019-04-03T09:33:51.449Z,9948.00
2019-04-03T09:34:51.489Z,13256.00
2019-04-03T09:35:51.370Z,10392.00
2019-04-03T09:36:51.404Z,9472.00
2019-04-03T09:37:51.352Z,9696.00
2019-04-03T09:38:51.432Z,9524.00
2019-04-03T09:39:51.586Z,10664.00
2019-04-03T09:40:51.561Z,9620.00
2019-04-03T09:41:51.309Z,9784.00
2019-04-03T09:42:51.597Z,10320.00
2019-04-03T09:43:53.406Z,9856.00
2019-04-03T09:44:51.299Z,10488.00
2019-04-03T09:45:51.549Z,10452.00
2019-04-03T09:46:51.314Z,8416.00
2019-04-03T09:47:51.238Z,7656.00
2019-04-03T09:48:51.605Z,7472.00
2019-04-03T09:49:51.246Z,6132.00
2019-04-03T09:50:51.205Z,5864.00
2019-04-03T09:51:52.110Z,6600.00
2019-04-03T09:52:53.998Z,7824.00
2019-04-03T09:53:51.392Z,7160.00
2019-04-03T09:54:51.165Z,6856.00
2019-04-03T09:55:51.215Z,7324.00
2019-04-03T09:56:57.941Z,7364.00
2019-04-03T09:57:52.947Z,8900.00
2019-04-03T09:58:51.122Z,9964.00
2019-04-03T09:59:51.126Z,10292.00
2019-04-03T10:00:51.103Z,10108.00
2019-04-03T10:01:51.335Z,9668.00
2019-04-03T10:02:51.918Z,9668.00
2019-04-03T10:03:53.427Z,10020.00
2019-04-03T10:04:51.171Z,8864.00
2019-04-03T10:05:51.059Z,8132.00
2019-04-03T10:06:51.039Z,7768.00
2019-04-03T10:07:51.029Z,8692.00
2019-04-03T10:08:51.012Z,9980.00
2019-04-03T10:09:53.779Z,8752.00
2019-04-03T10:10:51.147Z,6692.00
2019-04-03T10:11:52.489Z,6052.00
2019-04-03T10:12:53.613Z,6540.00
2019-04-03T10:13:51.043Z,7072.00
2019-04-03T10:14:50.966Z,7720.00
2019-04-03T10:15:50.955Z,8416.00
2019-04-03T10:16:50.925Z,8584.00
2019-04-03T10:17:50.923Z,7420.00
2019-04-03T10:18:50.941Z,6616.00
2019-04-03T10:19:50.914Z,6076.00
2019-04-03T10:20:50.890Z,5596.00
2019-04-03T10:21:52.875Z,5308.00
2019-04-03T10:22:50.869Z,7004.00
2019-04-03T10:23:51.044Z,8352.00
2019-04-03T10:24:50.899Z,7920.00
2019-04-03T10:25:52.962Z,7860.00
2019-04-03T10:26:50.821Z,7956.00
2019-04-03T10:27:50.979Z,8000.00
2019-04-03T10:28:50.793Z,7820.00
2019-04-03T10:29:51.154Z,7740.00
2019-04-03T10:30:52.889Z,7448.00
2019-04-03T10:31:50.772Z,7532.00
2019-04-03T10:32:50.752Z,7904.00
2019-04-03T10:33:50.811Z,8316.00
2019-04-03T10:34:50.768Z,8564.00
2019-04-03T10:35:51.460Z,8800.00
2019-04-03T10:36:50.708Z,8600.00
2019-04-03T10:37:50.843Z,8260.00
2019-04-03T10:38:50.687Z,7960.00
2019-04-03T10:39:52.725Z,7404.00
2019-04-03T10:40:50.951Z,7624.00
2019-04-03T10:41:50.713Z,8292.00
2019-04-03T10:42:50.646Z,7868.00
2019-04-03T10:43:50.635Z,7616.00
2019-04-03T10:44:50.627Z,6788.00
2019-04-03T10:45:50.638Z,6756.00
2019-04-03T10:46:50.781Z,7728.00
2019-04-03T10:47:50.605Z,7720.00
2019-04-03T10:48:50.583Z,7980.00
2019-04-03T10:49:50.565Z,7408.00
2019-04-03T10:50:50.589Z,6212.00
2019-04-03T10:51:50.654Z,5812.00
2019-04-03T10:52:50.552Z,6052.00
2019-04-03T10:53:51.439Z,6240.00
2019-04-03T10:54:50.548Z,6132.00
2019-04-03T10:55:50.514Z,5960.00
2019-04-03T10:56:50.490Z,6012.00
2019-04-03T10:57:50.490Z,5864.00
2019-04-03T10:58:51.012Z,5924.00
2019-04-03T10:59:54.358Z,6068.00
2019-04-03T11:00:50.472Z,5964.00
2019-04-03T11:01:50.472Z,6344.00
2019-04-03T11:02:50.780Z,6644.00
2019-04-03T11:03:50.430Z,6540.00
2019-04-03T11:04:50.428Z,5360.00
2019-04-03T11:05:50.634Z,4356.00
2019-04-03T11:06:50.479Z,3184.00
2019-04-03T11:07:51.409Z,2140.00
2019-04-03T11:08:50.375Z,1672.00
2019-04-03T11:09:50.353Z,1516.00
2019-04-03T11:10:50.696Z,1384.00
2019-04-03T11:11:50.335Z,1232.00
2019-04-03T11:12:50.356Z,1132.00
2019-04-03T11:13:50.314Z,1044.00
2019-04-03T11:14:50.470Z,1004.00
2019-04-03T11:15:50.443Z,1164.00
2019-04-03T11:16:50.422Z,1480.00
2019-04-03T11:17:50.524Z,1900.00
2019-04-03T11:18:58.525Z,2600.00
2019-04-03T11:19:51.261Z,3572.00
2019-04-03T11:20:50.249Z,3944.00
2019-04-03T11:21:50.221Z,4316.00
2019-04-03T11:22:50.593Z,5244.00
2019-04-03T11:23:50.236Z,6272.00
2019-04-03T11:24:50.955Z,7148.00
2019-04-03T11:25:50.249Z,7048.00
2019-04-03T11:26:51.767Z,7284.00
2019-04-03T11:27:50.158Z,7208.00
2019-04-03T11:28:50.343Z,7352.00
2019-04-03T11:29:50.473Z,8020.00
2019-04-03T11:30:52.874Z,8236.00
2019-04-03T11:31:50.134Z,8064.00
2019-04-03T11:32:50.483Z,8260.00
2019-04-03T11:33:51.416Z,8196.00
2019-04-03T11:34:53.619Z,8284.00
2019-04-03T11:35:52.284Z,8396.00
2019-04-03T11:36:50.389Z,8564.00
2019-04-03T11:37:50.127Z,8144.00
2019-04-03T11:38:50.179Z,7916.00
2019-04-03T11:40:01.322Z,7680.00
2019-04-03T11:40:51.013Z,7168.00
2019-04-03T11:41:50.027Z,6752.00
2019-04-03T11:42:50.062Z,5796.00
2019-04-03T11:43:50.071Z,4356.00
2019-04-03T11:44:50.343Z,3704.00
2019-04-03T11:45:49.980Z,3636.00
2019-04-03T11:46:50.033Z,3584.00
2019-04-03T11:47:50.145Z,3452.00
2019-04-03T11:48:50.026Z,3288.00
2019-04-03T11:49:52.369Z,3216.00
2019-04-03T11:50:49.985Z,2840.00
2019-04-03T11:51:49.933Z,2188.00
2019-04-03T11:52:51.446Z,1824.00
2019-04-03T11:53:50.010Z,1692.00
2019-04-03T11:54:52.354Z,1532.00
2019-04-03T11:55:49.856Z,1320.00
2019-04-03T11:56:50.102Z,1336.00
2019-04-03T11:57:50.526Z,1344.00
2019-04-03T11:58:51.812Z,1216.00
2019-04-03T11:59:50.174Z,932.00
2019-04-03T12:00:50.209Z,1032.00
2019-04-03T12:01:50.059Z,2072.00
2019-04-03T12:02:50.070Z,3108.00
2019-04-03T12:03:51.482Z,3796.00
2019-04-03T12:04:50.118Z,5552.00
2019-04-03T12:05:49.752Z,7044.00
2019-04-03T12:06:51.987Z,7256.00
2019-04-03T12:07:50.117Z,7512.00
2019-04-03T12:08:49.752Z,8324.00
2019-04-03T12:09:49.710Z,9296.00
2019-04-03T12:10:49.751Z,9824.00
2019-04-03T12:11:49.773Z,8932.00
2019-04-03T12:12:49.678Z,6944.00
2019-04-03T12:13:49.688Z,5964.00
2019-04-03T12:14:50.182Z,5348.00
2019-04-03T12:15:52.215Z,4708.00
2019-04-03T12:16:50.615Z,4484.00
2019-04-03T12:17:49.754Z,4468.00
2019-04-03T12:18:49.675Z,4316.00
2019-04-03T12:19:49.857Z,4180.00
2019-04-03T12:20:50.463Z,4064.00
2019-04-03T12:21:50.842Z,3900.00
2019-04-03T12:22:49.695Z,3704.00
2019-04-03T12:23:49.674Z,3396.00
2019-04-03T12:24:49.575Z,3100.00
2019-04-03T12:25:49.543Z,2832.00
2019-04-03T12:26:51.726Z,2468.00
2019-04-03T12:27:49.513Z,2128.00
2019-04-03T12:28:50.205Z,1856.00
2019-04-03T12:29:49.708Z,1716.00
2019-04-03T12:30:49.485Z,1760.00
2019-04-03T12:31:49.471Z,1724.00